CFQ2 weather

CLOSED Calgary (Westport) Heliport
Calgary, Alberta, Canada

Public forecast

Using degrees Celsius for public forecast. Weather courtesy of forecast.io.

METAR (pilot weather report)

Closest report is Calgary / Springbank Airport, 7.8 nm (14.5 km) WNW. Retrieved 2019/06/17 08:00 UTC (49 minutes ago):

CYBW 170800Z AUTO VRB02KT 9SM CLR 07/04 A3006 RMK SLP185

TAF (pilot weather forecast)

Forecast is more than 12 hours old.

Closest forecast is Calgary / Springbank Airport, 7.8 nm (14.5 km) WNW. Retrieved 2019/06/16 00:00 UTC (1 day ago):

TAF CYBW 162338Z 1700/1704 06008KT P6SM FEW070 BECMG 1700/1702 VRB03KT RMK FCST BASED ON AUTO OBS. NXT FCST WILL BE ISSUED AT 171145Z